createdAt,value
2023-01-07T00:00:23.353Z,99367.17
2023-01-07T00:01:18.227Z,99369.11
2023-01-07T00:01:50.295Z,99376.47
2023-01-07T00:02:22.456Z,99369.94
2023-01-07T00:02:54.561Z,99370.96
2023-01-07T00:03:27.505Z,99375.08
2023-01-07T00:04:01.873Z,99370.56
2023-01-07T00:04:34.608Z,99369.00
2023-01-07T00:05:07.385Z,99366.90
2023-01-07T00:05:39.589Z,99371.05
2023-01-07T00:06:44.526Z,99366.84
2023-01-07T00:07:16.823Z,99369.22
2023-01-07T00:07:49.102Z,99370.48
2023-01-07T00:08:21.124Z,99373.08
2023-01-07T00:08:55.026Z,99372.34
2023-01-07T00:09:27.103Z,99370.59
2023-01-07T00:09:59.188Z,99371.05
2023-01-07T00:10:31.275Z,99374.83
2023-01-07T00:11:05.781Z,99377.23
2023-01-07T00:11:39.776Z,99375.30
2023-01-07T00:12:11.617Z,99376.89
2023-01-07T00:12:43.785Z,99378.70
2023-01-07T00:13:15.844Z,99378.86
2023-01-07T00:13:50.817Z,99380.64
2023-01-07T00:14:23.090Z,99378.51
2023-01-07T00:14:55.293Z,99377.61
2023-01-07T00:15:27.793Z,99385.33
2023-01-07T00:16:09.062Z,99380.62
2023-01-07T00:16:42.211Z,99380.41
2023-01-07T00:17:14.393Z,99382.16
2023-01-07T00:17:46.264Z,99381.75
2023-01-07T00:18:18.235Z,99384.83
2023-01-07T00:18:52.623Z,99384.90
2023-01-07T00:19:24.613Z,99385.99
2023-01-07T00:19:56.678Z,99389.94
2023-01-07T00:20:28.668Z,99385.23
2023-01-07T00:21:02.462Z,99385.17
2023-01-07T00:21:35.696Z,99393.24
2023-01-07T00:22:07.675Z,99392.05
2023-01-07T00:22:40.226Z,99394.75
2023-01-07T00:23:12.402Z,99392.13
2023-01-07T00:23:46.074Z,99390.11
2023-01-07T00:24:18.568Z,99396.95
2023-01-07T00:24:50.907Z,99397.13
2023-01-07T00:25:22.989Z,99393.98
2023-01-07T00:26:04.744Z,99400.99
2023-01-07T00:26:38.595Z,99397.80
2023-01-07T00:27:10.745Z,99397.80
2023-01-07T00:27:43.022Z,99401.29
2023-01-07T00:28:15.475Z,99403.83
2023-01-07T00:28:49.795Z,99401.55
2023-01-07T00:29:22.076Z,99399.64
2023-01-07T00:29:54.446Z,99406.33
2023-01-07T00:30:26.621Z,99402.83
2023-01-07T00:31:00.773Z,99408.48
2023-01-07T00:31:36.261Z,99403.10
2023-01-07T00:32:08.429Z,99404.05
2023-01-07T00:33:09.830Z,99406.83
2023-01-07T00:34:06.017Z,99404.64
2023-01-07T00:34:38.646Z,99403.36
2023-01-07T00:35:22.610Z,99411.20
2023-01-07T00:36:09.216Z,99410.32
2023-01-07T00:36:45.997Z,99406.15
2023-01-07T00:37:38.203Z,99408.77
2023-01-07T00:38:11.250Z,99412.42
2023-01-07T00:38:43.771Z,99409.52
2023-01-07T00:39:19.019Z,99413.09
2023-01-07T00:39:51.090Z,99416.98
2023-01-07T00:40:23.449Z,99415.89
2023-01-07T00:40:55.463Z,99419.92
2023-01-07T00:41:28.508Z,99420.05
2023-01-07T00:42:19.090Z,99415.67
2023-01-07T00:42:54.155Z,99414.38
2023-01-07T00:43:27.216Z,99416.41
2023-01-07T00:43:59.628Z,99416.19
2023-01-07T00:44:32.435Z,99414.73
2023-01-07T00:45:04.889Z,99417.62
2023-01-07T00:45:37.227Z,99418.05
2023-01-07T00:46:12.922Z,99418.16
2023-01-07T00:46:45.186Z,99414.14
2023-01-07T00:47:17.334Z,99416.59
2023-01-07T00:47:53.096Z,99420.38
2023-01-07T00:48:25.136Z,99417.00
2023-01-07T00:48:57.268Z,99417.67
2023-01-07T00:49:29.256Z,99422.55
2023-01-07T00:50:01.383Z,99420.89
2023-01-07T00:50:35.942Z,99420.80
2023-01-07T00:51:14.280Z,99420.76
2023-01-07T00:51:46.289Z,99417.89
2023-01-07T00:52:18.268Z,99421.11
2023-01-07T00:52:50.429Z,99421.12
2023-01-07T00:53:25.114Z,99426.04
2023-01-07T00:53:57.023Z,99424.08
2023-01-07T00:54:29.420Z,99425.80
2023-01-07T00:55:01.886Z,99428.23
2023-01-07T00:55:34.027Z,99427.69
2023-01-07T00:56:06.394Z,99426.13
2023-01-07T00:56:38.534Z,99426.41
2023-01-07T00:57:13.547Z,99426.90
2023-01-07T00:57:45.834Z,99425.34
2023-01-07T00:58:23.249Z,99426.91
2023-01-07T00:58:55.360Z,99428.24
2023-01-07T00:59:27.396Z,99429.45
2023-01-07T01:00:00.308Z,99430.48
2023-01-07T01:00:33.296Z,99431.66
2023-01-07T01:01:05.749Z,99433.48
2023-01-07T01:01:38.134Z,99429.77
2023-01-07T01:02:10.210Z,99429.23
2023-01-07T01:02:42.649Z,99432.98
2023-01-07T01:03:15.335Z,99436.93
2023-01-07T01:03:47.694Z,99432.03
2023-01-07T01:04:19.517Z,99436.36
2023-01-07T01:04:51.559Z,99437.73
2023-01-07T01:05:23.724Z,99436.80
2023-01-07T01:06:01.866Z,99435.81
2023-01-07T01:06:33.901Z,99440.66
2023-01-07T01:07:06.380Z,99439.67
2023-01-07T01:07:38.909Z,99437.67
2023-01-07T01:08:11.125Z,99435.24
2023-01-07T01:08:45.847Z,99439.44
2023-01-07T01:09:20.232Z,99441.71
2023-01-07T01:09:52.327Z,99444.11
2023-01-07T01:10:24.388Z,99441.02
2023-01-07T01:10:56.449Z,99441.54
2023-01-07T01:11:28.439Z,99441.16
2023-01-07T01:12:00.600Z,99440.09
2023-01-07T01:12:34.958Z,99438.17
2023-01-07T01:13:07.108Z,99440.23
2023-01-07T01:13:39.778Z,99438.54
2023-01-07T01:14:11.764Z,99444.04
2023-01-07T01:14:43.959Z,99440.70
2023-01-07T01:15:16.907Z,99444.61
2023-01-07T01:15:49.597Z,99439.77
2023-01-07T01:16:21.698Z,99443.44
2023-01-07T01:16:53.746Z,99445.68
2023-01-07T01:17:25.824Z,99446.14
2023-01-07T01:17:58.158Z,99445.27
2023-01-07T01:18:30.235Z,99448.70
2023-01-07T01:19:02.394Z,99447.14
2023-01-07T01:19:34.418Z,99443.98
2023-01-07T01:20:08.978Z,99450.64
2023-01-07T01:20:41.513Z,99448.34
2023-01-07T01:21:15.190Z,99449.87
2023-01-07T01:21:47.669Z,99451.05
2023-01-07T01:22:19.622Z,99449.84
2023-01-07T01:22:51.766Z,99447.53
2023-01-07T01:23:23.999Z,99448.21
2023-01-07T01:23:55.942Z,99451.66
2023-01-07T01:24:28.463Z,99447.51
2023-01-07T01:25:00.451Z,99448.48
2023-01-07T01:25:32.705Z,99440.48
2023-01-07T01:26:06.200Z,99440.66
2023-01-07T01:26:38.309Z,99443.25
2023-01-07T01:27:10.626Z,99442.71
2023-01-07T01:27:43.606Z,99441.30
2023-01-07T01:28:15.711Z,99440.46
2023-01-07T01:28:47.698Z,99437.34
2023-01-07T01:29:19.764Z,99439.02
2023-01-07T01:29:51.646Z,99441.59
2023-01-07T01:30:23.774Z,99440.08
2023-01-07T01:30:56.004Z,99441.55
2023-01-07T01:31:28.071Z,99441.04
2023-01-07T01:32:00.685Z,99443.75
2023-01-07T01:32:33.042Z,99443.21
2023-01-07T01:33:05.173Z,99445.41
2023-01-07T01:33:37.078Z,99441.05
2023-01-07T01:34:09.201Z,99442.69
2023-01-07T01:34:41.272Z,99446.27
2023-01-07T01:35:13.309Z,99448.51
2023-01-07T01:35:45.342Z,99447.89
2023-01-07T01:36:17.348Z,99447.87
2023-01-07T01:36:49.277Z,99447.72
2023-01-07T01:37:21.220Z,99447.86
2023-01-07T01:37:53.369Z,99449.75
2023-01-07T01:38:25.567Z,99450.45
2023-01-07T01:38:57.668Z,99447.02
2023-01-07T01:39:29.944Z,99448.31
2023-01-07T01:40:04.867Z,99447.92
2023-01-07T01:40:37.014Z,99448.45
2023-01-07T01:41:08.988Z,99446.01
2023-01-07T01:41:40.999Z,99445.52
2023-01-07T01:42:14.850Z,99447.11
2023-01-07T01:42:46.958Z,99445.55
2023-01-07T01:43:37.826Z,99445.48
2023-01-07T01:44:41.409Z,99448.42
2023-01-07T01:45:13.937Z,99451.33
2023-01-07T01:45:46.018Z,99450.52
2023-01-07T01:46:45.121Z,99453.23
2023-01-07T01:47:43.387Z,99447.75
2023-01-07T01:48:15.361Z,99447.20
2023-01-07T01:48:59.155Z,99445.84
2023-01-07T01:49:41.549Z,99446.29
2023-01-07T01:50:26.070Z,99445.15
2023-01-07T01:50:58.107Z,99446.52
2023-01-07T01:51:34.406Z,99443.76
2023-01-07T01:52:31.617Z,99445.29
2023-01-07T01:53:09.322Z,99443.42
2023-01-07T01:53:41.661Z,99441.23
2023-01-07T01:54:16.944Z,99442.30
2023-01-07T01:54:53.486Z,99446.77
2023-01-07T01:55:31.671Z,99442.52
2023-01-07T01:56:21.334Z,99443.37
2023-01-07T01:56:56.335Z,99441.50
2023-01-07T01:57:32.808Z,99441.86
2023-01-07T01:58:09.885Z,99441.48
2023-01-07T01:58:47.262Z,99440.60
2023-01-07T01:59:24.668Z,99438.71
2023-01-07T01:59:57.343Z,99442.55
2023-01-07T02:00:30.455Z,99438.86
2023-01-07T02:01:03.169Z,99436.98
2023-01-07T02:01:36.423Z,99437.00
2023-01-07T02:02:09.238Z,99433.33
2023-01-07T02:02:50.707Z,99439.90
2023-01-07T02:03:26.006Z,99436.11
2023-01-07T02:03:59.688Z,99437.34
2023-01-07T02:04:33.552Z,99439.90
2023-01-07T02:05:07.379Z,99436.76
2023-01-07T02:05:41.557Z,99437.77
2023-01-07T02:06:21.282Z,99440.54
2023-01-07T02:07:05.528Z,99440.70
2023-01-07T02:07:37.510Z,99438.21
2023-01-07T02:08:10.049Z,99438.71
2023-01-07T02:08:42.007Z,99439.30
2023-01-07T02:09:14.106Z,99436.77
2023-01-07T02:09:56.212Z,99441.48
2023-01-07T02:10:29.651Z,99438.04
2023-01-07T02:11:28.703Z,99438.42
2023-01-07T02:12:06.659Z,99437.20
2023-01-07T02:12:56.074Z,99437.30
2023-01-07T02:13:33.699Z,99435.73
2023-01-07T02:14:27.047Z,99436.83
2023-01-07T02:14:59.013Z,99437.34
2023-01-07T02:15:53.966Z,99439.11
2023-01-07T02:16:47.083Z,99437.67
2023-01-07T02:17:35.754Z,99435.41
2023-01-07T02:18:27.009Z,99436.12
2023-01-07T02:19:20.022Z,99438.80
2023-01-07T02:20:15.029Z,99432.26
2023-01-07T02:21:07.889Z,99437.73
2023-01-07T02:22:06.965Z,99433.05
2023-01-07T02:22:45.015Z,99437.08
2023-01-07T02:23:41.740Z,99434.45
2023-01-07T02:24:44.244Z,99434.11
2023-01-07T02:25:41.570Z,99431.77
2023-01-07T02:26:44.359Z,99434.60
2023-01-07T02:27:52.043Z,99437.48
2023-01-07T02:28:59.156Z,99440.30
2023-01-07T02:29:56.015Z,99434.88
2023-01-07T02:31:06.490Z,99436.45
2023-01-07T02:32:05.983Z,99439.06
2023-01-07T02:32:43.737Z,99439.60
2023-01-07T02:33:32.674Z,99441.36
2023-01-07T02:34:43.033Z,99442.12
2023-01-07T02:35:35.335Z,99443.90
2023-01-07T02:36:31.104Z,99444.48
2023-01-07T02:37:12.332Z,99447.10
2023-01-07T02:38:10.308Z,99443.81
2023-01-07T02:39:19.675Z,99444.02
2023-01-07T02:40:14.997Z,99445.09
2023-01-07T02:41:07.383Z,99441.99
2023-01-07T02:41:58.869Z,99443.17
2023-01-07T02:42:54.894Z,99442.81
2023-01-07T02:44:06.709Z,99446.11
2023-01-07T02:44:38.834Z,99448.38
2023-01-07T02:45:17.805Z,99449.83
2023-01-07T02:46:01.690Z,99452.90
2023-01-07T02:46:43.008Z,99446.71
2023-01-07T02:47:28.122Z,99445.08
2023-01-07T02:48:07.529Z,99444.36
2023-01-07T02:48:40.849Z,99447.02
2023-01-07T02:49:16.324Z,99451.27
2023-01-07T02:49:48.880Z,99449.43
2023-01-07T02:50:20.843Z,99452.62
2023-01-07T02:50:52.760Z,99452.52
2023-01-07T02:51:32.955Z,99451.27
2023-01-07T02:52:23.094Z,99451.29
2023-01-07T02:52:55.121Z,99454.65
2023-01-07T02:53:27.067Z,99450.98
2023-01-07T02:54:00.569Z,99453.48
2023-01-07T02:54:32.519Z,99454.04
2023-01-07T02:55:16.556Z,99454.08
2023-01-07T02:56:09.026Z,99461.45
2023-01-07T02:56:59.809Z,99459.71
2023-01-07T02:57:58.990Z,99461.80
2023-01-07T02:58:49.426Z,99464.20
2023-01-07T03:00:04.666Z,99464.27
2023-01-07T03:00:55.446Z,99471.36
2023-01-07T03:01:27.694Z,99469.70
2023-01-07T03:02:11.346Z,99467.93
2023-01-07T03:02:52.291Z,99468.34
2023-01-07T03:03:36.368Z,99469.89
2023-01-07T03:04:27.064Z,99471.83
2023-01-07T03:05:16.592Z,99472.77
2023-01-07T03:06:33.424Z,99470.54
2023-01-07T03:07:33.327Z,99472.48
2023-01-07T03:08:36.550Z,99480.70
2023-01-07T03:09:43.897Z,99492.52
2023-01-07T03:10:44.803Z,99502.60
2023-01-07T03:11:19.504Z,99509.29
2023-01-07T03:12:04.932Z,99508.41
2023-01-07T03:13:13.965Z,99508.39
2023-01-07T03:14:04.939Z,99516.25
2023-01-07T03:15:02.097Z,99518.33
2023-01-07T03:15:50.334Z,99508.75
2023-01-07T03:16:30.037Z,99503.97
2023-01-07T03:17:06.161Z,99505.85
2023-01-07T03:17:48.473Z,99506.20
2023-01-07T03:18:27.596Z,99503.17
2023-01-07T03:19:03.732Z,99506.55
2023-01-07T03:19:40.864Z,99506.11
2023-01-07T03:20:15.739Z,99510.50
2023-01-07T03:20:52.385Z,99509.33
2023-01-07T03:21:27.060Z,99514.07
2023-01-07T03:22:01.803Z,99514.52
2023-01-07T03:22:36.617Z,99513.39
2023-01-07T03:23:12.596Z,99511.68
2023-01-07T03:23:52.345Z,99513.08
2023-01-07T03:24:26.061Z,99516.20
2023-01-07T03:24:59.252Z,99513.73
2023-01-07T03:25:34.381Z,99514.78
2023-01-07T03:26:07.735Z,99511.75
2023-01-07T03:26:43.832Z,99511.64
2023-01-07T03:27:20.075Z,99515.98
2023-01-07T03:27:53.923Z,99516.52
2023-01-07T03:28:30.232Z,99516.96
2023-01-07T03:29:04.667Z,99517.03
2023-01-07T03:29:36.851Z,99515.69
2023-01-07T03:30:12.622Z,99517.86
2023-01-07T03:30:46.634Z,99518.08
2023-01-07T03:31:20.811Z,99519.70
2023-01-07T03:32:21.890Z,99518.68
2023-01-07T03:33:00.698Z,99519.84
2023-01-07T03:34:03.149Z,99520.00
2023-01-07T03:34:37.941Z,99521.04
2023-01-07T03:35:10.819Z,99521.56
2023-01-07T03:35:46.863Z,99522.69
2023-01-07T03:36:23.319Z,99521.02
2023-01-07T03:37:04.718Z,99524.55
2023-01-07T03:37:38.130Z,99524.97
2023-01-07T03:38:11.773Z,99523.02
2023-01-07T03:38:45.355Z,99523.83
2023-01-07T03:39:19.456Z,99523.66
2023-01-07T03:39:53.207Z,99524.64
2023-01-07T03:40:25.356Z,99522.04
2023-01-07T03:40:57.396Z,99518.92
2023-01-07T03:41:47.796Z,99522.48
2023-01-07T03:42:40.825Z,99518.13
2023-01-07T03:43:14.344Z,99514.75
2023-01-07T03:43:46.285Z,99516.02
2023-01-07T03:44:18.446Z,99518.21
2023-01-07T03:44:50.435Z,99513.66
2023-01-07T03:45:25.027Z,99513.50
2023-01-07T03:45:59.157Z,99511.02
2023-01-07T03:46:33.259Z,99511.17
2023-01-07T03:47:06.476Z,99514.88
2023-01-07T03:47:42.958Z,99516.16
2023-01-07T03:48:15.062Z,99516.92
2023-01-07T03:48:47.041Z,99518.77
2023-01-07T03:49:19.101Z,99515.86
2023-01-07T03:49:51.215Z,99520.64
2023-01-07T03:50:23.863Z,99520.23
2023-01-07T03:50:56.074Z,99519.55
2023-01-07T03:51:28.734Z,99521.52
2023-01-07T03:52:00.871Z,99522.53
2023-01-07T03:52:32.941Z,99526.48
2023-01-07T03:53:05.131Z,99527.37
2023-01-07T03:53:37.251Z,99527.47
2023-01-07T03:54:09.898Z,99528.27
2023-01-07T03:54:41.950Z,99527.50
2023-01-07T03:55:14.617Z,99530.58
2023-01-07T03:55:46.639Z,99530.38
2023-01-07T03:56:18.614Z,99529.17
2023-01-07T03:56:51.027Z,99529.26
2023-01-07T03:57:23.815Z,99525.70
2023-01-07T03:57:57.167Z,99530.49
2023-01-07T03:58:30.886Z,99533.29
2023-01-07T03:59:03.145Z,99531.66
2023-01-07T03:59:35.237Z,99534.41
2023-01-07T04:00:10.305Z,99535.08
2023-01-07T04:00:43.091Z,99536.20
2023-01-07T04:01:15.241Z,99533.45
2023-01-07T04:01:47.532Z,99538.77
2023-01-07T04:02:19.670Z,99541.16
2023-01-07T04:02:51.674Z,99540.04
2023-01-07T04:03:26.279Z,99538.79
2023-01-07T04:03:58.228Z,99544.42
2023-01-07T04:04:31.905Z,99541.27
2023-01-07T04:05:04.225Z,99542.45
2023-01-07T04:05:36.278Z,99545.09
2023-01-07T04:06:08.369Z,99541.72
2023-01-07T04:06:40.592Z,99541.11
2023-01-07T04:07:13.349Z,99545.11
2023-01-07T04:07:45.478Z,99543.14
2023-01-07T04:08:17.500Z,99543.73
2023-01-07T04:08:49.621Z,99542.02
2023-01-07T04:09:21.695Z,99541.96
2023-01-07T04:09:53.703Z,99540.92
2023-01-07T04:10:26.543Z,99541.91
2023-01-07T04:10:58.460Z,99543.97
2023-01-07T04:11:30.481Z,99547.51
2023-01-07T04:12:03.071Z,99551.35
2023-01-07T04:12:36.059Z,99548.33
2023-01-07T04:13:08.092Z,99548.41
2023-01-07T04:13:40.186Z,99553.61
2023-01-07T04:14:12.158Z,99550.75
2023-01-07T04:14:45.058Z,99551.29
2023-01-07T04:15:17.177Z,99553.52
2023-01-07T04:15:49.213Z,99554.30
2023-01-07T04:16:21.392Z,99553.06
2023-01-07T04:16:53.674Z,99556.64
2023-01-07T04:17:25.825Z,99549.67
2023-01-07T04:17:57.787Z,99552.02
2023-01-07T04:18:29.859Z,99551.48
2023-01-07T04:19:02.016Z,99549.92
2023-01-07T04:19:34.205Z,99551.79
2023-01-07T04:20:07.400Z,99548.39
2023-01-07T04:20:39.322Z,99553.41
2023-01-07T04:21:11.361Z,99551.69
2023-01-07T04:21:44.005Z,99552.67
2023-01-07T04:22:16.014Z,99556.64
2023-01-07T04:22:47.999Z,99551.98
2023-01-07T04:23:19.881Z,99554.86
2023-01-07T04:23:51.891Z,99556.40
2023-01-07T04:24:23.753Z,99559.66
2023-01-07T04:24:55.775Z,99561.05
2023-01-07T04:25:27.769Z,99560.15
2023-01-07T04:25:59.701Z,99561.00
2023-01-07T04:26:33.388Z,99560.16
2023-01-07T04:27:05.371Z,99557.93
2023-01-07T04:27:37.454Z,99561.91
2023-01-07T04:28:09.407Z,99561.80
2023-01-07T04:28:41.319Z,99565.23
2023-01-07T04:29:13.732Z,99564.84
2023-01-07T04:29:45.638Z,99565.11
2023-01-07T04:30:17.812Z,99564.92
2023-01-07T04:30:49.718Z,99567.05
2023-01-07T04:31:21.714Z,99565.98
2023-01-07T04:31:54.086Z,99565.04
2023-01-07T04:32:26.087Z,99562.69
2023-01-07T04:32:57.969Z,99565.40
2023-01-07T04:33:30.008Z,99561.83
2023-01-07T04:34:02.058Z,99562.08
2023-01-07T04:34:34.245Z,99563.83
2023-01-07T04:35:06.379Z,99564.84
2023-01-07T04:35:41.860Z,99563.56
2023-01-07T04:36:13.842Z,99566.68
2023-01-07T04:36:45.724Z,99568.21
2023-01-07T04:37:17.705Z,99566.98
2023-01-07T04:37:49.619Z,99568.85
2023-01-07T04:38:21.708Z,99563.83
2023-01-07T04:38:53.666Z,99571.98
2023-01-07T04:39:25.673Z,99571.23
2023-01-07T04:39:57.680Z,99571.02
2023-01-07T04:40:29.678Z,99567.52
2023-01-07T04:41:01.665Z,99572.94
2023-01-07T04:41:33.596Z,99571.56
2023-01-07T04:42:05.478Z,99567.57
2023-01-07T04:42:37.504Z,99566.91
2023-01-07T04:43:10.130Z,99566.88
2023-01-07T04:43:42.217Z,99564.83
2023-01-07T04:44:17.246Z,99566.06
2023-01-07T04:44:49.280Z,99566.52
2023-01-07T04:45:21.563Z,99564.98
2023-01-07T04:45:53.627Z,99562.55
2023-01-07T04:46:25.911Z,99567.07
2023-01-07T04:46:57.959Z,99566.77
2023-01-07T04:47:30.029Z,99568.48
2023-01-07T04:48:02.108Z,99567.80
2023-01-07T04:48:34.103Z,99573.05
2023-01-07T04:49:06.328Z,99573.08
2023-01-07T04:49:38.575Z,99571.86
2023-01-07T04:50:10.650Z,99574.55
2023-01-07T04:50:42.825Z,99575.38
2023-01-07T04:51:14.907Z,99579.02
2023-01-07T04:51:46.999Z,99579.65
2023-01-07T04:52:18.949Z,99576.15
2023-01-07T04:52:51.185Z,99575.77
2023-01-07T04:53:23.237Z,99572.59
2023-01-07T04:53:57.007Z,99577.80
2023-01-07T04:54:29.004Z,99577.23
2023-01-07T04:55:01.104Z,99574.42
2023-01-07T04:55:33.235Z,99576.17
2023-01-07T04:56:05.891Z,99578.29
2023-01-07T04:56:37.993Z,99573.68
2023-01-07T04:57:10.290Z,99574.42
2023-01-07T04:57:42.561Z,99571.10
2023-01-07T04:58:14.906Z,99573.05
2023-01-07T04:58:47.400Z,99567.16
2023-01-07T04:59:19.674Z,99567.32
2023-01-07T04:59:51.748Z,99566.51
2023-01-07T05:00:23.793Z,99562.53
2023-01-07T05:00:58.161Z,99569.73
2023-01-07T05:01:32.118Z,99566.77
2023-01-07T05:02:04.622Z,99569.40
2023-01-07T05:02:36.482Z,99571.34
2023-01-07T05:03:09.001Z,99577.79
2023-01-07T05:03:40.991Z,99574.52
2023-01-07T05:04:13.241Z,99578.23
2023-01-07T05:04:45.322Z,99579.30
2023-01-07T05:05:17.358Z,99580.34
2023-01-07T05:05:49.843Z,99582.31
2023-01-07T05:06:21.951Z,99584.20
2023-01-07T05:06:53.992Z,99581.48
2023-01-07T05:07:26.311Z,99582.21
2023-01-07T05:07:58.497Z,99584.48
2023-01-07T05:08:30.761Z,99584.32
2023-01-07T05:09:02.973Z,99583.08
2023-01-07T05:09:35.107Z,99582.20
2023-01-07T05:10:07.584Z,99585.83
2023-01-07T05:10:39.592Z,99584.07
2023-01-07T05:11:11.736Z,99584.50
2023-01-07T05:11:43.868Z,99584.23
2023-01-07T05:12:16.035Z,99583.85
2023-01-07T05:12:48.121Z,99583.66
2023-01-07T05:13:22.186Z,99579.34
2023-01-07T05:13:54.390Z,99585.80
2023-01-07T05:14:26.647Z,99581.47
2023-01-07T05:14:58.791Z,99585.33
2023-01-07T05:15:31.262Z,99587.29
2023-01-07T05:16:03.525Z,99586.15
2023-01-07T05:16:35.558Z,99584.96
2023-01-07T05:17:07.772Z,99586.89
2023-01-07T05:17:39.937Z,99585.00
2023-01-07T05:18:12.239Z,99582.55
2023-01-07T05:18:44.859Z,99583.27
2023-01-07T05:19:17.113Z,99586.78
2023-01-07T05:19:49.081Z,99584.73
2023-01-07T05:20:21.286Z,99584.23
2023-01-07T05:20:53.582Z,99584.80
2023-01-07T05:21:25.910Z,99586.83
2023-01-07T05:21:59.265Z,99588.12
2023-01-07T05:22:32.647Z,99590.34
2023-01-07T05:23:05.713Z,99590.50
2023-01-07T05:23:38.538Z,99591.02
2023-01-07T05:24:10.637Z,99591.73
2023-01-07T05:24:42.862Z,99592.98
2023-01-07T05:25:14.970Z,99593.85
2023-01-07T05:25:46.974Z,99594.45
2023-01-07T05:26:19.454Z,99593.80
2023-01-07T05:26:51.572Z,99596.76
2023-01-07T05:27:23.509Z,99596.23
2023-01-07T05:27:55.499Z,99595.11
2023-01-07T05:28:27.427Z,99595.14
2023-01-07T05:28:59.521Z,99591.96
2023-01-07T05:29:31.600Z,99595.96
2023-01-07T05:30:04.408Z,99593.35
2023-01-07T05:30:36.538Z,99594.05
2023-01-07T05:31:08.637Z,99595.41
2023-01-07T05:31:40.647Z,99595.93
2023-01-07T05:32:12.866Z,99595.05
2023-01-07T05:32:44.889Z,99596.39
2023-01-07T05:33:16.707Z,99597.73
2023-01-07T05:33:48.886Z,99596.49
2023-01-07T05:34:20.810Z,99599.48
2023-01-07T05:34:52.743Z,99596.72
2023-01-07T05:35:24.896Z,99598.33
2023-01-07T05:35:57.166Z,99594.86
2023-01-07T05:36:29.162Z,99592.07
2023-01-07T05:37:01.170Z,99593.69
2023-01-07T05:37:33.450Z,99595.28
2023-01-07T05:38:05.631Z,99596.81
2023-01-07T05:38:37.752Z,99598.32
2023-01-07T05:39:09.904Z,99597.00
2023-01-07T05:39:42.003Z,99596.61
2023-01-07T05:40:14.221Z,99593.36
2023-01-07T05:40:49.922Z,99599.96
2023-01-07T05:41:22.157Z,99596.54
2023-01-07T05:41:54.349Z,99595.88
2023-01-07T05:42:26.360Z,99596.34
2023-01-07T05:42:58.445Z,99597.41
2023-01-07T05:43:31.116Z,99599.14
2023-01-07T05:44:03.289Z,99598.81
2023-01-07T05:44:35.353Z,99599.69
2023-01-07T05:45:08.169Z,99602.95
2023-01-07T05:45:42.446Z,99602.95
2023-01-07T05:46:14.831Z,99602.92
2023-01-07T05:46:46.832Z,99605.88
2023-01-07T05:47:18.875Z,99603.34
2023-01-07T05:47:50.852Z,99605.23
2023-01-07T05:48:23.133Z,99607.61
2023-01-07T05:48:55.064Z,99609.34
2023-01-07T05:49:27.067Z,99609.84
2023-01-07T05:49:59.088Z,99608.67
2023-01-07T05:50:31.049Z,99609.56
2023-01-07T05:51:03.240Z,99611.70
2023-01-07T05:51:35.527Z,99613.27
2023-01-07T05:52:07.643Z,99608.48
2023-01-07T05:52:39.710Z,99612.42
2023-01-07T05:53:11.784Z,99609.45
2023-01-07T05:53:44.351Z,99609.33
2023-01-07T05:54:16.305Z,99608.80
2023-01-07T05:54:48.401Z,99605.55
2023-01-07T05:55:20.418Z,99610.21
2023-01-07T05:55:57.007Z,99613.10
2023-01-07T05:56:28.952Z,99615.24
2023-01-07T05:57:01.019Z,99614.48
2023-01-07T05:57:33.267Z,99610.70
2023-01-07T05:58:07.029Z,99612.92
2023-01-07T05:58:39.088Z,99614.48
2023-01-07T05:59:10.995Z,99611.36
2023-01-07T05:59:43.042Z,99613.30
2023-01-07T06:00:15.267Z,99616.02
2023-01-07T06:00:47.196Z,99614.30
2023-01-07T06:01:19.256Z,99615.86
2023-01-07T06:01:51.279Z,99616.52
2023-01-07T06:02:23.388Z,99615.29
2023-01-07T06:02:55.485Z,99609.58
2023-01-07T06:03:27.543Z,99611.96
2023-01-07T06:03:59.546Z,99611.45
2023-01-07T06:04:31.631Z,99609.69
2023-01-07T06:05:04.652Z,99611.94
2023-01-07T06:05:36.606Z,99608.41
2023-01-07T06:06:08.686Z,99610.50
2023-01-07T06:06:40.797Z,99611.44
2023-01-07T06:07:13.016Z,99613.04
2023-01-07T06:07:45.652Z,99613.25
2023-01-07T06:08:17.731Z,99613.55
2023-01-07T06:08:49.749Z,99614.54
2023-01-07T06:09:22.093Z,99616.44
2023-01-07T06:09:54.230Z,99615.15
2023-01-07T06:10:26.439Z,99614.63
2023-01-07T06:10:58.498Z,99619.29
2023-01-07T06:11:30.932Z,99618.94
2023-01-07T06:12:03.085Z,99619.30
2023-01-07T06:12:35.494Z,99622.96
2023-01-07T06:13:07.650Z,99621.92
2023-01-07T06:13:39.650Z,99622.12
2023-01-07T06:14:11.995Z,99621.77
2023-01-07T06:14:44.091Z,99626.48
2023-01-07T06:15:16.109Z,99625.23
2023-01-07T06:15:48.201Z,99626.28
2023-01-07T06:16:20.332Z,99629.05
2023-01-07T06:16:52.313Z,99629.88
2023-01-07T06:17:24.357Z,99630.32
2023-01-07T06:17:56.631Z,99632.60
2023-01-07T06:18:28.807Z,99633.98
2023-01-07T06:19:00.959Z,99632.27
2023-01-07T06:19:32.949Z,99640.38
2023-01-07T06:20:06.083Z,99635.17
2023-01-07T06:20:38.123Z,99637.23
2023-01-07T06:21:10.187Z,99635.31
2023-01-07T06:21:42.312Z,99636.69
2023-01-07T06:22:14.835Z,99636.25
2023-01-07T06:22:46.971Z,99631.95
2023-01-07T06:23:19.008Z,99634.91
2023-01-07T06:23:51.256Z,99637.20
2023-01-07T06:24:23.245Z,99636.24
2023-01-07T06:24:55.347Z,99632.64
2023-01-07T06:25:28.471Z,99634.40
2023-01-07T06:26:00.660Z,99632.02
2023-01-07T06:26:32.776Z,99631.20
2023-01-07T06:27:04.673Z,99629.66
2023-01-07T06:27:36.653Z,99629.00
2023-01-07T06:28:08.618Z,99631.94
2023-01-07T06:28:40.525Z,99632.79
2023-01-07T06:29:12.608Z,99631.52
2023-01-07T06:29:44.602Z,99634.90
2023-01-07T06:30:16.897Z,99634.52
2023-01-07T06:30:49.107Z,99637.27
2023-01-07T06:31:21.268Z,99637.48
2023-01-07T06:31:53.412Z,99644.38
2023-01-07T06:32:25.361Z,99644.02
2023-01-07T06:32:57.548Z,99643.91
2023-01-07T06:33:30.027Z,99646.93
2023-01-07T06:34:02.884Z,99643.14
2023-01-07T06:34:35.252Z,99644.79
2023-01-07T06:35:09.929Z,99645.48
2023-01-07T06:35:42.110Z,99646.68
2023-01-07T06:36:14.178Z,99644.49
2023-01-07T06:36:46.176Z,99644.63
2023-01-07T06:37:18.443Z,99646.87
2023-01-07T06:37:50.652Z,99642.84
2023-01-07T06:38:22.640Z,99644.05
2023-01-07T06:38:54.720Z,99645.11
2023-01-07T06:39:27.114Z,99645.12
2023-01-07T06:39:59.191Z,99645.96
2023-01-07T06:40:31.217Z,99647.20
2023-01-07T06:41:03.434Z,99647.06
2023-01-07T06:41:35.609Z,99645.83
2023-01-07T06:42:07.613Z,99649.12
2023-01-07T06:42:39.756Z,99651.13
2023-01-07T06:43:11.881Z,99653.84
2023-01-07T06:43:44.163Z,99655.36
2023-01-07T06:44:16.464Z,99660.23
2023-01-07T06:44:48.671Z,99655.64
2023-01-07T06:45:20.847Z,99658.33
2023-01-07T06:45:53.228Z,99657.86
2023-01-07T06:46:25.384Z,99657.84
2023-01-07T06:46:57.486Z,99655.26
2023-01-07T06:47:29.446Z,99658.25
2023-01-07T06:48:02.368Z,99659.42
2023-01-07T06:48:34.501Z,99659.66
2023-01-07T06:49:06.658Z,99659.91
2023-01-07T06:49:38.742Z,99661.99
2023-01-07T06:50:11.610Z,99659.53
2023-01-07T06:50:44.898Z,99663.92
2023-01-07T06:51:17.124Z,99664.65
2023-01-07T06:51:49.061Z,99663.47
2023-01-07T06:52:21.305Z,99660.91
2023-01-07T06:52:53.361Z,99664.55
2023-01-07T06:53:25.279Z,99662.17
2023-01-07T06:53:57.255Z,99662.06
2023-01-07T06:54:29.384Z,99663.45
2023-01-07T06:55:01.569Z,99662.11
2023-01-07T06:55:33.656Z,99662.44